KMCI/MCI METAR and TAF weather

Enter ICAO airport designator
Station Type Date Time Source
KMCI METAR 2021/04/18 00:53 UTC NOAA

KMCI 180053Z 27006KT 10SM SCT060 BKN075 OVC110 09/07 A3004 RMK AO2 RAE08B39E50 SLP174 P0006 T00940072


Station Type Date Time Source
KMCI Decoded METAR 2021/04/18 00:53 UTC NOAA

KANSAS CITY INTERNATIONAL AIRPORT, MO, United States (KMCI) 39-18N 94-44W 320M
Apr 17, 2021 - 08:53 PM EDT / 2021.04.18 0053 UTC
Wind: from the W (270 degrees) at 7 MPH (6 KT):0
Visibility: 10 mile(s):0
Sky conditions: overcast
Precipitation last hour: 0.06 inches
Temperature: 48.9 F (9.4 C)
Dew Point: 45.0 F (7.2 C)
Relative Humidity: 86%
Pressure (altimeter): 30.04 in. Hg (1017 hPa)
ob: KMCI 180053Z 27006KT 10SM SCT060 BKN075 OVC110 09/07 A3004 RMK AO2 RAE08B39E50 SLP174 P0006 T00940072
cycle: 1

Station Type Date Time Source
KMCI TAF 2021/04/17 23:58 UTC NOAA

TAF
AMD KMCI 172257Z 1723/1818 33007KT P6SM VCSH BKN060
TEMPO 1723/1724 5SM -RA
FM180200 33007KT P6SM BKN040

Example: see airport list